sensor_id;sensor_type;location;lat;lon;timestamp;temperature;humidity
23544;DHT22;11950;51.230;4.012;2023-06-24T00:01:28;17.70;99.90
23544;DHT22;11950;51.230;4.012;2023-06-24T00:03:55;17.70;99.90
23544;DHT22;11950;51.230;4.012;2023-06-24T00:06:21;17.70;99.90
23544;DHT22;11950;51.230;4.012;2023-06-24T00:08:48;17.70;99.90
23544;DHT22;11950;51.230;4.012;2023-06-24T00:11:15;17.60;99.90
23544;DHT22;11950;51.230;4.012;2023-06-24T00:13:43;17.60;99.90
23544;DHT22;11950;51.230;4.012;2023-06-24T00:16:09;17.60;99.90
23544;DHT22;11950;51.230;4.012;2023-06-24T00:18:37;17.60;99.90
23544;DHT22;11950;51.230;4.012;2023-06-24T00:21:07;17.60;99.90
23544;DHT22;11950;51.230;4.012;2023-06-24T00:23:33;17.60;99.90
23544;DHT22;11950;51.230;4.012;2023-06-24T00:26:02;17.50;99.90
23544;DHT22;11950;51.230;4.012;2023-06-24T00:28:28;17.50;99.90
23544;DHT22;11950;51.230;4.012;2023-06-24T00:30:55;17.50;99.90
23544;DHT22;11950;51.230;4.012;2023-06-24T00:33:21;17.50;99.90
23544;DHT22;11950;51.230;4.012;2023-06-24T00:35:47;17.40;99.90
23544;DHT22;11950;51.230;4.012;2023-06-24T00:38:15;17.40;99.90
23544;DHT22;11950;51.230;4.012;2023-06-24T00:40:41;17.30;99.90
23544;DHT22;11950;51.230;4.012;2023-06-24T00:43:08;17.30;99.90
23544;DHT22;11950;51.230;4.012;2023-06-24T00:45:35;17.20;99.90
23544;DHT22;11950;51.230;4.012;2023-06-24T00:48:02;17.20;99.90
23544;DHT22;11950;51.230;4.012;2023-06-24T00:50:29;17.20;99.90
23544;DHT22;11950;51.230;4.012;2023-06-24T00:52:55;17.20;99.90
23544;DHT22;11950;51.230;4.012;2023-06-24T00:55:23;17.10;99.90
23544;DHT22;11950;51.230;4.012;2023-06-24T00:57:51;17.10;99.90
23544;DHT22;11950;51.230;4.012;2023-06-24T01:00:21;17.10;99.90
23544;DHT22;11950;51.230;4.012;2023-06-24T01:02:48;17.00;99.90
23544;DHT22;11950;51.230;4.012;2023-06-24T01:05:15;17.10;99.90
23544;DHT22;11950;51.230;4.012;2023-06-24T01:07:42;17.00;99.90
23544;DHT22;11950;51.230;4.012;2023-06-24T01:10:09;17.00;99.90
23544;DHT22;11950;51.230;4.012;2023-06-24T01:12:40;17.00;99.90
23544;DHT22;11950;51.230;4.012;2023-06-24T01:15:09;17.00;99.90
23544;DHT22;11950;51.230;4.012;2023-06-24T01:17:53;16.90;99.90
23544;DHT22;11950;51.230;4.012;2023-06-24T01:23:15;16.80;99.90
23544;DHT22;11950;51.230;4.012;2023-06-24T01:26:04;16.80;99.90
23544;DHT22;11950;51.230;4.012;2023-06-24T01:28:57;16.80;99.90
23544;DHT22;11950;51.230;4.012;2023-06-24T01:34:29;16.70;99.90
23544;DHT22;11950;51.230;4.012;2023-06-24T01:37:17;16.70;99.90
23544;DHT22;11950;51.230;4.012;2023-06-24T01:39:50;16.70;99.90
23544;DHT22;11950;51.230;4.012;2023-06-24T01:42:19;16.70;99.90
23544;DHT22;11950;51.230;4.012;2023-06-24T01:44:48;16.70;99.90
23544;DHT22;11950;51.230;4.012;2023-06-24T01:47:19;16.60;99.90
23544;DHT22;11950;51.230;4.012;2023-06-24T01:49:52;16.60;99.90
23544;DHT22;11950;51.230;4.012;2023-06-24T01:52:22;16.60;99.90
23544;DHT22;11950;51.230;4.012;2023-06-24T01:54:50;16.60;99.90
23544;DHT22;11950;51.230;4.012;2023-06-24T01:57:18;16.60;99.90
23544;DHT22;11950;51.230;4.012;2023-06-24T01:59:47;16.50;99.90
23544;DHT22;11950;51.230;4.012;2023-06-24T02:02:15;16.50;99.90
23544;DHT22;11950;51.230;4.012;2023-06-24T02:04:44;16.50;99.90
23544;DHT22;11950;51.230;4.012;2023-06-24T02:07:11;16.40;99.90
23544;DHT22;11950;51.230;4.012;2023-06-24T02:09:39;16.50;99.90
23544;DHT22;11950;51.230;4.012;2023-06-24T02:12:08;16.40;99.90
23544;DHT22;11950;51.230;4.012;2023-06-24T02:14:36;16.40;99.90
23544;DHT22;11950;51.230;4.012;2023-06-24T02:17:05;16.40;99.90
23544;DHT22;11950;51.230;4.012;2023-06-24T02:19:34;16.40;99.90
23544;DHT22;11950;51.230;4.012;2023-06-24T02:22:01;16.40;99.90
23544;DHT22;11950;51.230;4.012;2023-06-24T02:24:28;16.40;99.90
23544;DHT22;11950;51.230;4.012;2023-06-24T02:26:58;16.40;99.90
23544;DHT22;11950;51.230;4.012;2023-06-24T02:29:29;16.30;99.90
23544;DHT22;11950;51.230;4.012;2023-06-24T02:31:56;16.30;99.90
23544;DHT22;11950;51.230;4.012;2023-06-24T02:34:23;16.30;99.90
23544;DHT22;11950;51.230;4.012;2023-06-24T02:36:50;16.30;99.90
23544;DHT22;11950;51.230;4.012;2023-06-24T02:39:16;16.20;99.90
23544;DHT22;11950;51.230;4.012;2023-06-24T02:41:43;16.30;99.90
23544;DHT22;11950;51.230;4.012;2023-06-24T02:44:10;16.20;99.90
23544;DHT22;11950;51.230;4.012;2023-06-24T02:46:36;16.20;99.90
23544;DHT22;11950;51.230;4.012;2023-06-24T02:49:03;16.20;99.90
23544;DHT22;11950;51.230;4.012;2023-06-24T02:51:32;16.20;99.90
23544;DHT22;11950;51.230;4.012;2023-06-24T02:53:58;16.20;99.90
23544;DHT22;11950;51.230;4.012;2023-06-24T02:56:45;16.20;99.90
23544;DHT22;11950;51.230;4.012;2023-06-24T02:59:19;16.10;99.90
23544;DHT22;11950;51.230;4.012;2023-06-24T03:01:48;16.20;99.90
23544;DHT22;11950;51.230;4.012;2023-06-24T03:04:15;16.20;99.90
23544;DHT22;11950;51.230;4.012;2023-06-24T03:06:42;16.20;99.90
23544;DHT22;11950;51.230;4.012;2023-06-24T03:09:09;16.10;99.90
23544;DHT22;11950;51.230;4.012;2023-06-24T03:11:43;16.10;99.90
23544;DHT22;11950;51.230;4.012;2023-06-24T03:14:12;16.00;99.90
23544;DHT22;11950;51.230;4.012;2023-06-24T03:16:41;16.10;99.90
23544;DHT22;11950;51.230;4.012;2023-06-24T03:19:14;16.00;99.90
23544;DHT22;11950;51.230;4.012;2023-06-24T03:21:42;16.00;99.90
23544;DHT22;11950;51.230;4.012;2023-06-24T03:24:11;15.90;99.90
23544;DHT22;11950;51.230;4.012;2023-06-24T03:26:40;15.90;99.90
23544;DHT22;11950;51.230;4.012;2023-06-24T03:29:09;15.90;99.90
23544;DHT22;11950;51.230;4.012;2023-06-24T03:31:39;15.90;99.90
23544;DHT22;11950;51.230;4.012;2023-06-24T03:34:11;15.90;99.90
23544;DHT22;11950;51.230;4.012;2023-06-24T03:36:37;15.90;99.90
23544;DHT22;11950;51.230;4.012;2023-06-24T03:39:07;15.90;99.90
23544;DHT22;11950;51.230;4.012;2023-06-24T03:41:34;15.90;99.90
23544;DHT22;11950;51.230;4.012;2023-06-24T03:44:00;15.80;99.90
23544;DHT22;11950;51.230;4.012;2023-06-24T03:46:27;15.80;99.90
23544;DHT22;11950;51.230;4.012;2023-06-24T03:48:59;15.80;99.90
23544;DHT22;11950;51.230;4.012;2023-06-24T03:51:27;15.70;99.90
23544;DHT22;11950;51.230;4.012;2023-06-24T03:53:54;15.70;99.90
23544;DHT22;11950;51.230;4.012;2023-06-24T03:56:20;15.70;99.90
23544;DHT22;11950;51.230;4.012;2023-06-24T03:58:47;15.60;99.90
23544;DHT22;11950;51.230;4.012;2023-06-24T04:01:13;15.70;99.90
23544;DHT22;11950;51.230;4.012;2023-06-24T04:03:41;15.60;99.90
23544;DHT22;11950;51.230;4.012;2023-06-24T04:06:07;15.60;99.90
23544;DHT22;11950;51.230;4.012;2023-06-24T04:08:34;15.70;99.90
23544;DHT22;11950;51.230;4.012;2023-06-24T04:11:00;15.70;99.90
23544;DHT22;11950;51.230;4.012;2023-06-24T04:13:28;15.70;99.90
23544;DHT22;11950;51.230;4.012;2023-06-24T04:15:55;15.70;99.90
23544;DHT22;11950;51.230;4.012;2023-06-24T04:18:21;15.70;99.90
23544;DHT22;11950;51.230;4.012;2023-06-24T04:20:48;15.70;99.90
23544;DHT22;11950;51.230;4.012;2023-06-24T04:23:14;15.80;99.90
23544;DHT22;11950;51.230;4.012;2023-06-24T04:25:41;15.80;99.90
23544;DHT22;11950;51.230;4.012;2023-06-24T04:28:08;15.80;99.90
23544;DHT22;11950;51.230;4.012;2023-06-24T04:30:36;15.80;99.90
23544;DHT22;11950;51.230;4.012;2023-06-24T04:33:05;15.80;99.90
23544;DHT22;11950;51.230;4.012;2023-06-24T04:35:31;15.80;99.90
23544;DHT22;11950;51.230;4.012;2023-06-24T04:37:57;15.80;99.90
23544;DHT22;11950;51.230;4.012;2023-06-24T04:40:24;15.90;99.90
23544;DHT22;11950;51.230;4.012;2023-06-24T04:42:50;15.90;99.90
23544;DHT22;11950;51.230;4.012;2023-06-24T04:45:16;15.90;99.90
23544;DHT22;11950;51.230;4.012;2023-06-24T04:47:42;15.90;99.90
23544;DHT22;11950;51.230;4.012;2023-06-24T04:50:09;16.00;99.90
23544;DHT22;11950;51.230;4.012;2023-06-24T04:52:36;16.00;99.90
23544;DHT22;11950;51.230;4.012;2023-06-24T04:55:02;16.10;99.90
23544;DHT22;11950;51.230;4.012;2023-06-24T04:57:30;16.10;99.90
23544;DHT22;11950;51.230;4.012;2023-06-24T04:59:57;16.10;99.90
23544;DHT22;11950;51.230;4.012;2023-06-24T05:02:24;16.20;99.90
23544;DHT22;11950;51.230;4.012;2023-06-24T05:04:51;16.30;99.90
23544;DHT22;11950;51.230;4.012;2023-06-24T05:07:18;16.30;99.90
23544;DHT22;11950;51.230;4.012;2023-06-24T05:09:48;16.40;99.90
23544;DHT22;11950;51.230;4.012;2023-06-24T05:12:14;16.40;99.90
23544;DHT22;11950;51.230;4.012;2023-06-24T05:14:41;16.50;99.90
23544;DHT22;11950;51.230;4.012;2023-06-24T05:17:07;16.60;99.90
23544;DHT22;11950;51.230;4.012;2023-06-24T05:19:33;16.70;99.90
23544;DHT22;11950;51.230;4.012;2023-06-24T05:21:59;16.80;99.90
23544;DHT22;11950;51.230;4.012;2023-06-24T05:24:26;16.80;99.90
23544;DHT22;11950;51.230;4.012;2023-06-24T05:26:52;16.90;99.90
23544;DHT22;11950;51.230;4.012;2023-06-24T05:29:18;17.00;99.90
23544;DHT22;11950;51.230;4.012;2023-06-24T05:31:45;17.00;99.90
23544;DHT22;11950;51.230;4.012;2023-06-24T05:34:12;17.10;99.90
23544;DHT22;11950;51.230;4.012;2023-06-24T05:36:38;17.20;99.90
23544;DHT22;11950;51.230;4.012;2023-06-24T05:39:05;17.30;99.90
23544;DHT22;11950;51.230;4.012;2023-06-24T05:41:34;17.30;99.90
23544;DHT22;11950;51.230;4.012;2023-06-24T05:44:02;17.40;99.90
23544;DHT22;11950;51.230;4.012;2023-06-24T05:46:29;17.50;99.90
23544;DHT22;11950;51.230;4.012;2023-06-24T05:48:55;17.60;99.90
23544;DHT22;11950;51.230;4.012;2023-06-24T05:51:21;17.70;99.90
23544;DHT22;11950;51.230;4.012;2023-06-24T05:53:47;17.80;99.90
23544;DHT22;11950;51.230;4.012;2023-06-24T05:56:14;17.80;99.90
23544;DHT22;11950;51.230;4.012;2023-06-24T05:58:40;17.90;99.90
23544;DHT22;11950;51.230;4.012;2023-06-24T06:01:10;18.00;99.90
23544;DHT22;11950;51.230;4.012;2023-06-24T06:03:36;18.00;99.90
23544;DHT22;11950;51.230;4.012;2023-06-24T06:06:02;18.10;99.90
23544;DHT22;11950;51.230;4.012;2023-06-24T06:08:29;18.20;99.90
23544;DHT22;11950;51.230;4.012;2023-06-24T06:10:55;18.20;99.90
23544;DHT22;11950;51.230;4.012;2023-06-24T06:13:22;18.30;99.90
23544;DHT22;11950;51.230;4.012;2023-06-24T06:15:48;18.30;99.90
23544;DHT22;11950;51.230;4.012;2023-06-24T06:18:14;18.40;99.90
23544;DHT22;11950;51.230;4.012;2023-06-24T06:20:40;18.60;99.90
23544;DHT22;11950;51.230;4.012;2023-06-24T06:23:07;18.60;99.90
23544;DHT22;11950;51.230;4.012;2023-06-24T06:25:33;18.70;99.90
23544;DHT22;11950;51.230;4.012;2023-06-24T06:27:59;18.80;99.90
23544;DHT22;11950;51.230;4.012;2023-06-24T06:30:25;19.00;99.90
23544;DHT22;11950;51.230;4.012;2023-06-24T06:32:52;19.10;99.90
23544;DHT22;11950;51.230;4.012;2023-06-24T06:35:18;19.20;99.90
23544;DHT22;11950;51.230;4.012;2023-06-24T06:37:44;19.40;99.90
23544;DHT22;11950;51.230;4.012;2023-06-24T06:40:13;19.50;99.90
23544;DHT22;11950;51.230;4.012;2023-06-24T06:42:40;19.70;99.90
23544;DHT22;11950;51.230;4.012;2023-06-24T06:45:06;19.90;99.90
23544;DHT22;11950;51.230;4.012;2023-06-24T06:47:32;20.00;99.90
23544;DHT22;11950;51.230;4.012;2023-06-24T06:49:59;20.20;99.90
23544;DHT22;11950;51.230;4.012;2023-06-24T06:52:25;20.30;99.90
23544;DHT22;11950;51.230;4.012;2023-06-24T06:54:51;20.50;99.90
23544;DHT22;11950;51.230;4.012;2023-06-24T06:57:17;20.60;99.90
23544;DHT22;11950;51.230;4.012;2023-06-24T06:59:44;20.60;99.90
23544;DHT22;11950;51.230;4.012;2023-06-24T07:02:10;20.70;99.90
23544;DHT22;11950;51.230;4.012;2023-06-24T07:04:36;20.70;99.90
23544;DHT22;11950;51.230;4.012;2023-06-24T07:07:03;20.70;99.90
23544;DHT22;11950;51.230;4.012;2023-06-24T07:09:29;20.80;99.90
23544;DHT22;11950;51.230;4.012;2023-06-24T07:11:56;20.80;99.90
23544;DHT22;11950;51.230;4.012;2023-06-24T07:14:22;20.80;99.90
23544;DHT22;11950;51.230;4.012;2023-06-24T07:16:48;20.90;99.90
23544;DHT22;11950;51.230;4.012;2023-06-24T07:19:14;20.90;99.90
23544;DHT22;11950;51.230;4.012;2023-06-24T07:21:40;21.00;99.90
23544;DHT22;11950;51.230;4.012;2023-06-24T07:24:07;21.00;99.90
23544;DHT22;11950;51.230;4.012;2023-06-24T07:26:33;21.10;99.90
23544;DHT22;11950;51.230;4.012;2023-06-24T07:28:59;21.10;99.90
23544;DHT22;11950;51.230;4.012;2023-06-24T07:31:26;21.10;99.90
23544;DHT22;11950;51.230;4.012;2023-06-24T07:33:52;21.20;99.90
23544;DHT22;11950;51.230;4.012;2023-06-24T07:36:20;21.30;99.90
23544;DHT22;11950;51.230;4.012;2023-06-24T07:38:48;21.40;99.90
23544;DHT22;11950;51.230;4.012;2023-06-24T07:41:14;21.50;99.90
23544;DHT22;11950;51.230;4.012;2023-06-24T07:43:40;21.60;99.90
23544;DHT22;11950;51.230;4.012;2023-06-24T07:46:07;21.80;99.90
23544;DHT22;11950;51.230;4.012;2023-06-24T07:48:33;21.90;99.90
23544;DHT22;11950;51.230;4.012;2023-06-24T07:51:00;22.00;99.90
23544;DHT22;11950;51.230;4.012;2023-06-24T07:53:26;22.10;99.90
23544;DHT22;11950;51.230;4.012;2023-06-24T07:55:52;22.20;99.90
23544;DHT22;11950;51.230;4.012;2023-06-24T07:58:18;22.40;99.90
23544;DHT22;11950;51.230;4.012;2023-06-24T08:00:47;22.50;99.90
23544;DHT22;11950;51.230;4.012;2023-06-24T08:03:14;22.60;99.90
23544;DHT22;11950;51.230;4.012;2023-06-24T08:05:40;22.70;99.90
23544;DHT22;11950;51.230;4.012;2023-06-24T08:08:07;22.80;99.90
23544;DHT22;11950;51.230;4.012;2023-06-24T08:10:33;23.00;99.90
23544;DHT22;11950;51.230;4.012;2023-06-24T08:13:00;23.10;99.90
23544;DHT22;11950;51.230;4.012;2023-06-24T08:15:26;23.40;99.90
23544;DHT22;11950;51.230;4.012;2023-06-24T08:17:53;23.50;99.90
23544;DHT22;11950;51.230;4.012;2023-06-24T08:20:21;23.60;99.90
23544;DHT22;11950;51.230;4.012;2023-06-24T08:22:47;23.80;99.90
23544;DHT22;11950;51.230;4.012;2023-06-24T08:25:14;23.90;99.90
23544;DHT22;11950;51.230;4.012;2023-06-24T08:27:40;23.90;99.90
23544;DHT22;11950;51.230;4.012;2023-06-24T08:30:07;24.00;99.90
23544;DHT22;11950;51.230;4.012;2023-06-24T08:32:33;24.10;99.90
23544;DHT22;11950;51.230;4.012;2023-06-24T08:34:59;24.20;99.90
23544;DHT22;11950;51.230;4.012;2023-06-24T08:37:26;24.30;99.90
23544;DHT22;11950;51.230;4.012;2023-06-24T08:39:52;24.40;99.90
23544;DHT22;11950;51.230;4.012;2023-06-24T08:42:18;24.50;99.90
23544;DHT22;11950;51.230;4.012;2023-06-24T08:44:44;24.60;99.90
23544;DHT22;11950;51.230;4.012;2023-06-24T08:47:11;24.70;99.90
23544;DHT22;11950;51.230;4.012;2023-06-24T08:49:49;24.80;99.90
23544;DHT22;11950;51.230;4.012;2023-06-24T08:52:20;24.90;99.90
23544;DHT22;11950;51.230;4.012;2023-06-24T08:54:50;24.90;99.90
23544;DHT22;11950;51.230;4.012;2023-06-24T08:57:16;25.00;99.90
23544;DHT22;11950;51.230;4.012;2023-06-24T08:59:44;25.00;99.90
23544;DHT22;11950;51.230;4.012;2023-06-24T09:02:11;25.10;99.90
23544;DHT22;11950;51.230;4.012;2023-06-24T09:04:40;25.20;99.90
23544;DHT22;11950;51.230;4.012;2023-06-24T09:07:06;25.40;99.90
23544;DHT22;11950;51.230;4.012;2023-06-24T09:09:33;25.40;99.90
23544;DHT22;11950;51.230;4.012;2023-06-24T09:12:11;25.40;99.90
23544;DHT22;11950;51.230;4.012;2023-06-24T09:14:37;25.60;99.90
23544;DHT22;11950;51.230;4.012;2023-06-24T09:17:04;25.70;99.90
23544;DHT22;11950;51.230;4.012;2023-06-24T09:19:30;25.80;99.90
23544;DHT22;11950;51.230;4.012;2023-06-24T09:22:04;25.90;99.90
23544;DHT22;11950;51.230;4.012;2023-06-24T09:24:31;25.90;99.90
23544;DHT22;11950;51.230;4.012;2023-06-24T09:26:58;26.00;99.90
23544;DHT22;11950;51.230;4.012;2023-06-24T09:29:32;26.00;99.90
23544;DHT22;11950;51.230;4.012;2023-06-24T09:31:58;26.10;99.90
23544;DHT22;11950;51.230;4.012;2023-06-24T09:34:28;26.10;99.90
23544;DHT22;11950;51.230;4.012;2023-06-24T09:36:56;26.20;99.90
23544;DHT22;11950;51.230;4.012;2023-06-24T09:39:23;26.30;99.90
23544;DHT22;11950;51.230;4.012;2023-06-24T09:41:59;26.40;99.90
23544;DHT22;11950;51.230;4.012;2023-06-24T09:44:26;26.40;99.90
23544;DHT22;11950;51.230;4.012;2023-06-24T09:46:54;26.50;99.90
23544;DHT22;11950;51.230;4.012;2023-06-24T09:49:22;26.50;99.90
23544;DHT22;11950;51.230;4.012;2023-06-24T09:51:51;26.50;99.90
23544;DHT22;11950;51.230;4.012;2023-06-24T09:54:21;26.50;99.90
23544;DHT22;11950;51.230;4.012;2023-06-24T09:56:51;26.60;99.90
23544;DHT22;11950;51.230;4.012;2023-06-24T09:59:20;26.70;99.90
23544;DHT22;11950;51.230;4.012;2023-06-24T10:01:48;26.80;99.90
23544;DHT22;11950;51.230;4.012;2023-06-24T10:04:17;26.90;99.90
23544;DHT22;11950;51.230;4.012;2023-06-24T10:06:44;26.90;99.90
23544;DHT22;11950;51.230;4.012;2023-06-24T10:09:10;26.90;99.90
23544;DHT22;11950;51.230;4.012;2023-06-24T10:11:39;26.90;99.90
23544;DHT22;11950;51.230;4.012;2023-06-24T10:14:06;27.00;99.90
23544;DHT22;11950;51.230;4.012;2023-06-24T10:16:32;27.10;99.90
23544;DHT22;11950;51.230;4.012;2023-06-24T10:19:02;27.10;99.90
23544;DHT22;11950;51.230;4.012;2023-06-24T10:21:57;27.20;99.90
23544;DHT22;11950;51.230;4.012;2023-06-24T10:24:37;27.30;99.90
23544;DHT22;11950;51.230;4.012;2023-06-24T10:27:16;27.40;99.90
23544;DHT22;11950;51.230;4.012;2023-06-24T10:29:53;27.40;99.90
23544;DHT22;11950;51.230;4.012;2023-06-24T10:32:21;27.40;99.90
23544;DHT22;11950;51.230;4.012;2023-06-24T10:34:56;27.40;99.90
23544;DHT22;11950;51.230;4.012;2023-06-24T10:37:24;27.40;99.90
23544;DHT22;11950;51.230;4.012;2023-06-24T10:39:55;27.50;99.90
23544;DHT22;11950;51.230;4.012;2023-06-24T10:42:41;27.50;99.90
23544;DHT22;11950;51.230;4.012;2023-06-24T10:47:42;27.50;99.90
23544;DHT22;11950;51.230;4.012;2023-06-24T10:50:16;27.50;99.90
23544;DHT22;11950;51.230;4.012;2023-06-24T10:52:44;27.60;99.90
23544;DHT22;11950;51.230;4.012;2023-06-24T10:55:17;27.70;99.90
23544;DHT22;11950;51.230;4.012;2023-06-24T10:57:44;27.70;99.90
23544;DHT22;11950;51.230;4.012;2023-06-24T11:00:14;27.80;99.90
23544;DHT22;11950;51.230;4.012;2023-06-24T11:02:41;27.80;99.90
23544;DHT22;11950;51.230;4.012;2023-06-24T11:05:07;27.90;99.90
23544;DHT22;11950;51.230;4.012;2023-06-24T11:07:38;27.90;99.90
23544;DHT22;11950;51.230;4.012;2023-06-24T11:10:11;28.00;99.90
23544;DHT22;11950;51.230;4.012;2023-06-24T11:12:41;28.00;99.90
23544;DHT22;11950;51.230;4.012;2023-06-24T11:15:12;28.10;99.90
23544;DHT22;11950;51.230;4.012;2023-06-24T11:17:39;28.10;99.90
23544;DHT22;11950;51.230;4.012;2023-06-24T11:20:10;28.20;99.90
23544;DHT22;11950;51.230;4.012;2023-06-24T11:22:37;28.20;99.90
23544;DHT22;11950;51.230;4.012;2023-06-24T11:25:05;28.20;99.90
23544;DHT22;11950;51.230;4.012;2023-06-24T11:27:32;28.20;99.90
23544;DHT22;11950;51.230;4.012;2023-06-24T11:29:59;28.20;99.90
23544;DHT22;11950;51.230;4.012;2023-06-24T11:32:48;28.20;99.90
23544;DHT22;11950;51.230;4.012;2023-06-24T11:35:16;28.20;99.90
23544;DHT22;11950;51.230;4.012;2023-06-24T11:37:46;28.20;99.90
23544;DHT22;11950;51.230;4.012;2023-06-24T11:40:15;28.20;99.90
23544;DHT22;11950;51.230;4.012;2023-06-24T11:42:42;28.30;99.90
23544;DHT22;11950;51.230;4.012;2023-06-24T11:45:12;28.30;99.90
23544;DHT22;11950;51.230;4.012;2023-06-24T11:47:39;28.40;99.90
23544;DHT22;11950;51.230;4.012;2023-06-24T11:50:07;28.40;99.90
23544;DHT22;11950;51.230;4.012;2023-06-24T11:55:22;28.30;99.90
23544;DHT22;11950;51.230;4.012;2023-06-24T11:57:58;28.40;99.90
23544;DHT22;11950;51.230;4.012;2023-06-24T12:00:27;28.40;99.90
23544;DHT22;11950;51.230;4.012;2023-06-24T12:02:57;28.40;99.90
23544;DHT22;11950;51.230;4.012;2023-06-24T12:05:26;28.50;99.90
23544;DHT22;11950;51.230;4.012;2023-06-24T12:07:58;28.50;99.90
23544;DHT22;11950;51.230;4.012;2023-06-24T12:10:26;28.50;99.90
23544;DHT22;11950;51.230;4.012;2023-06-24T12:12:52;28.50;99.90
23544;DHT22;11950;51.230;4.012;2023-06-24T12:15:19;28.50;99.90
23544;DHT22;11950;51.230;4.012;2023-06-24T12:17:45;28.50;99.90
23544;DHT22;11950;51.230;4.012;2023-06-24T12:20:12;28.50;99.90
23544;DHT22;11950;51.230;4.012;2023-06-24T12:22:44;28.60;99.90
23544;DHT22;11950;51.230;4.012;2023-06-24T12:25:10;28.60;99.90
23544;DHT22;11950;51.230;4.012;2023-06-24T12:27:37;28.60;99.90
23544;DHT22;11950;51.230;4.012;2023-06-24T12:30:05;28.60;99.90
23544;DHT22;11950;51.230;4.012;2023-06-24T12:32:31;28.50;99.90
23544;DHT22;11950;51.230;4.012;2023-06-24T12:34:57;28.60;99.90
23544;DHT22;11950;51.230;4.012;2023-06-24T12:37:23;28.60;99.90
23544;DHT22;11950;51.230;4.012;2023-06-24T12:39:50;28.60;99.90
23544;DHT22;11950;51.230;4.012;2023-06-24T12:42:19;28.60;99.90
23544;DHT22;11950;51.230;4.012;2023-06-24T12:44:45;28.50;99.90
23544;DHT22;11950;51.230;4.012;2023-06-24T12:47:12;28.60;99.90
23544;DHT22;11950;51.230;4.012;2023-06-24T12:49:38;28.50;99.90
23544;DHT22;11950;51.230;4.012;2023-06-24T12:52:04;28.50;99.90
23544;DHT22;11950;51.230;4.012;2023-06-24T12:54:30;28.50;99.90
23544;DHT22;11950;51.230;4.012;2023-06-24T12:56:57;28.50;99.90
23544;DHT22;11950;51.230;4.012;2023-06-24T12:59:23;28.50;99.90
23544;DHT22;11950;51.230;4.012;2023-06-24T13:01:50;28.60;99.90
23544;DHT22;11950;51.230;4.012;2023-06-24T13:04:16;28.50;99.90
23544;DHT22;11950;51.230;4.012;2023-06-24T13:06:46;28.50;99.90
23544;DHT22;11950;51.230;4.012;2023-06-24T13:09:12;28.50;99.90
23544;DHT22;11950;51.230;4.012;2023-06-24T13:11:38;28.50;99.90
23544;DHT22;11950;51.230;4.012;2023-06-24T13:14:06;28.40;99.90
23544;DHT22;11950;51.230;4.012;2023-06-24T13:16:32;28.40;99.90
23544;DHT22;11950;51.230;4.012;2023-06-24T13:18:58;28.50;99.90
23544;DHT22;11950;51.230;4.012;2023-06-24T13:21:25;28.50;99.90
23544;DHT22;11950;51.230;4.012;2023-06-24T13:23:51;28.50;99.90
23544;DHT22;11950;51.230;4.012;2023-06-24T13:26:17;28.50;99.90
23544;DHT22;11950;51.230;4.012;2023-06-24T13:28:43;28.40;99.90
23544;DHT22;11950;51.230;4.012;2023-06-24T13:31:10;28.40;99.90
23544;DHT22;11950;51.230;4.012;2023-06-24T13:33:36;28.40;99.90
23544;DHT22;11950;51.230;4.012;2023-06-24T13:36:04;28.40;99.90
23544;DHT22;11950;51.230;4.012;2023-06-24T13:38:31;28.40;99.90
23544;DHT22;11950;51.230;4.012;2023-06-24T13:40:57;28.50;99.90
23544;DHT22;11950;51.230;4.012;2023-06-24T13:43:23;28.50;99.90
23544;DHT22;11950;51.230;4.012;2023-06-24T13:45:51;28.50;99.90
23544;DHT22;11950;51.230;4.012;2023-06-24T13:48:17;28.50;99.90
23544;DHT22;11950;51.230;4.012;2023-06-24T13:50:43;28.50;99.90
23544;DHT22;11950;51.230;4.012;2023-06-24T13:53:09;28.50;99.90
23544;DHT22;11950;51.230;4.012;2023-06-24T13:55:35;28.50;99.90
23544;DHT22;11950;51.230;4.012;2023-06-24T13:58:02;28.50;99.90
23544;DHT22;11950;51.230;4.012;2023-06-24T14:00:28;28.40;99.90
23544;DHT22;11950;51.230;4.012;2023-06-24T14:02:54;28.40;99.90
23544;DHT22;11950;51.230;4.012;2023-06-24T14:05:21;28.40;99.90
23544;DHT22;11950;51.230;4.012;2023-06-24T14:07:47;28.50;99.90
23544;DHT22;11950;51.230;4.012;2023-06-24T14:10:14;28.50;99.90
23544;DHT22;11950;51.230;4.012;2023-06-24T14:12:40;28.50;99.90
23544;DHT22;11950;51.230;4.012;2023-06-24T14:15:09;28.40;99.90
23544;DHT22;11950;51.230;4.012;2023-06-24T14:17:35;28.40;99.90
23544;DHT22;11950;51.230;4.012;2023-06-24T14:20:01;28.40;99.90
23544;DHT22;11950;51.230;4.012;2023-06-24T14:22:29;28.40;99.90
23544;DHT22;11950;51.230;4.012;2023-06-24T14:24:55;28.30;99.90
23544;DHT22;11950;51.230;4.012;2023-06-24T14:27:21;28.30;99.90
23544;DHT22;11950;51.230;4.012;2023-06-24T14:29:47;28.30;99.90
23544;DHT22;11950;51.230;4.012;2023-06-24T14:32:14;28.30;99.90
23544;DHT22;11950;51.230;4.012;2023-06-24T14:34:40;28.30;99.90
23544;DHT22;11950;51.230;4.012;2023-06-24T14:37:06;28.30;99.90
23544;DHT22;11950;51.230;4.012;2023-06-24T14:39:32;28.20;99.90
23544;DHT22;11950;51.230;4.012;2023-06-24T14:41:59;28.30;99.90
23544;DHT22;11950;51.230;4.012;2023-06-24T14:44:25;28.20;99.90
23544;DHT22;11950;51.230;4.012;2023-06-24T14:46:51;28.20;99.90
23544;DHT22;11950;51.230;4.012;2023-06-24T14:49:17;28.20;99.90
23544;DHT22;11950;51.230;4.012;2023-06-24T14:51:43;28.20;99.90
23544;DHT22;11950;51.230;4.012;2023-06-24T14:54:10;28.30;99.90
23544;DHT22;11950;51.230;4.012;2023-06-24T14:56:36;28.30;99.90
23544;DHT22;11950;51.230;4.012;2023-06-24T14:59:02;28.30;99.90
23544;DHT22;11950;51.230;4.012;2023-06-24T15:01:28;28.30;99.90
23544;DHT22;11950;51.230;4.012;2023-06-24T15:03:55;28.20;99.90
23544;DHT22;11950;51.230;4.012;2023-06-24T15:06:21;28.20;99.90
23544;DHT22;11950;51.230;4.012;2023-06-24T15:08:47;28.20;99.90
23544;DHT22;11950;51.230;4.012;2023-06-24T15:11:14;28.20;99.90
23544;DHT22;11950;51.230;4.012;2023-06-24T15:13:40;28.10;99.90
23544;DHT22;11950;51.230;4.012;2023-06-24T15:16:06;28.10;99.90
23544;DHT22;11950;51.230;4.012;2023-06-24T15:18:32;28.10;99.90
23544;DHT22;11950;51.230;4.012;2023-06-24T15:20:59;28.10;99.90
23544;DHT22;11950;51.230;4.012;2023-06-24T15:23:25;28.10;99.90
23544;DHT22;11950;51.230;4.012;2023-06-24T15:25:52;28.00;99.90
23544;DHT22;11950;51.230;4.012;2023-06-24T15:28:18;28.00;99.90
23544;DHT22;11950;51.230;4.012;2023-06-24T15:30:45;28.00;99.90
23544;DHT22;11950;51.230;4.012;2023-06-24T15:33:11;28.00;99.90
23544;DHT22;11950;51.230;4.012;2023-06-24T15:35:37;28.00;99.90
23544;DHT22;11950;51.230;4.012;2023-06-24T15:38:03;28.00;99.90
23544;DHT22;11950;51.230;4.012;2023-06-24T15:40:29;27.90;99.90
23544;DHT22;11950;51.230;4.012;2023-06-24T15:42:56;27.90;99.90
23544;DHT22;11950;51.230;4.012;2023-06-24T15:45:22;27.90;99.90